createdAt,value
2022-08-27T00:03:13.538Z,28.25
2022-08-27T00:08:15.488Z,23.67
2022-08-27T00:13:17.982Z,22.58
2022-08-27T00:18:22.731Z,29.23
2022-08-27T00:23:24.776Z,35.60
2022-08-27T00:28:28.680Z,42.10
2022-08-27T00:33:30.772Z,37.85
2022-08-27T00:38:32.659Z,47.03
2022-08-27T00:44:04.672Z,56.60
2022-08-27T00:49:32.626Z,58.72
2022-08-27T00:54:34.803Z,61.13
2022-08-27T00:59:37.097Z,57.33
2022-08-27T01:04:41.561Z,55.22
2022-08-27T01:09:46.173Z,50.15
2022-08-27T01:14:48.140Z,54.47
2022-08-27T01:19:54.720Z,53.85
2022-08-27T01:25:00.208Z,54.10
2022-08-27T01:30:02.764Z,51.08
2022-08-27T01:35:08.150Z,57.63
2022-08-27T01:40:11.244Z,58.38
2022-08-27T01:45:20.083Z,55.67
2022-08-27T01:50:25.814Z,55.28
2022-08-27T01:55:27.864Z,58.70
2022-08-27T02:00:33.838Z,61.88
2022-08-27T02:05:39.326Z,68.10
2022-08-27T02:10:48.419Z,58.03
2022-08-27T02:15:50.393Z,57.83
2022-08-27T02:20:52.403Z,56.08
2022-08-27T02:25:54.290Z,63.22
2022-08-27T02:30:56.203Z,61.10
2022-08-27T02:35:58.098Z,53.25
2022-08-27T02:40:59.973Z,58.38
2022-08-27T02:46:02.982Z,58.75
2022-08-27T02:51:06.293Z,54.13
2022-08-27T02:56:08.283Z,65.35
2022-08-27T03:01:11.156Z,55.63
2022-08-27T03:06:15.728Z,53.85
2022-08-27T03:11:17.632Z,57.05
2022-08-27T03:16:19.992Z,61.97
2022-08-27T03:21:25.992Z,66.47
2022-08-27T03:26:32.022Z,62.97
2022-08-27T03:31:34.453Z,62.30
2022-08-27T03:36:36.345Z,62.60
2022-08-27T03:41:43.859Z,62.05
2022-08-27T03:46:57.216Z,59.75
2022-08-27T03:51:59.121Z,51.53
2022-08-27T03:57:01.030Z,59.13
2022-08-27T04:02:03.321Z,58.58
2022-08-27T04:07:05.380Z,69.50
2022-08-27T04:12:07.473Z,54.30
2022-08-27T04:17:09.336Z,56.30
2022-08-27T04:22:11.212Z,54.33
2022-08-27T04:27:15.210Z,53.80
2022-08-27T04:32:17.295Z,63.28
2022-08-27T04:37:23.278Z,49.17
2022-08-27T04:42:27.671Z,50.53
2022-08-27T04:47:29.688Z,63.25
2022-08-27T04:52:31.548Z,61.88
2022-08-27T04:57:34.979Z,60.03
2022-08-27T05:02:36.906Z,56.70
2022-08-27T05:07:39.145Z,49.72
2022-08-27T05:12:41.009Z,43.78
2022-08-27T05:17:44.221Z,55.22
2022-08-27T05:22:46.804Z,49.22
2022-08-27T05:27:48.725Z,37.58
2022-08-27T05:32:50.601Z,53.05
2022-08-27T05:37:52.502Z,41.08
2022-08-27T05:42:55.657Z,43.22
2022-08-27T05:47:58.783Z,42.67
2022-08-27T05:53:00.670Z,40.47
2022-08-27T05:58:02.542Z,53.10
2022-08-27T06:03:04.536Z,51.65
2022-08-27T06:08:06.947Z,47.45
2022-08-27T06:13:09.057Z,50.67
2022-08-27T06:18:13.660Z,52.03
2022-08-27T06:23:15.571Z,65.75
2022-08-27T06:28:21.463Z,58.88
2022-08-27T06:33:23.343Z,68.35
2022-08-27T06:38:25.263Z,55.13
2022-08-27T06:43:27.294Z,61.05
2022-08-27T06:48:32.064Z,52.83
2022-08-27T06:53:36.407Z,46.40
2022-08-27T06:58:38.440Z,46.38
2022-08-27T07:03:40.932Z,41.42
2022-08-27T07:08:43.802Z,37.45
2022-08-27T07:13:56.426Z,39.80
2022-08-27T07:19:02.359Z,44.63
2022-08-27T07:24:06.707Z,38.00
2022-08-27T07:29:10.512Z,43.50
2022-08-27T07:34:12.444Z,45.72
2022-08-27T07:39:16.799Z,51.45
2022-08-27T07:44:30.986Z,56.00
2022-08-27T07:49:37.741Z,43.78
2022-08-27T07:54:41.151Z,51.55
2022-08-27T07:59:43.372Z,52.50
2022-08-27T08:04:45.602Z,44.17
2022-08-27T08:09:47.498Z,41.42
2022-08-27T08:14:49.527Z,46.40
2022-08-27T08:20:15.752Z,40.97
2022-08-27T08:25:16.842Z,37.72
2022-08-27T08:30:18.804Z,42.65
2022-08-27T08:35:20.986Z,41.65
2022-08-27T08:40:32.312Z,39.53
2022-08-27T08:45:37.244Z,38.03
2022-08-27T08:51:05.759Z,35.67
2022-08-27T08:56:15.457Z,33.10
2022-08-27T09:01:20.906Z,28.92
2022-08-27T09:06:41.454Z,31.88
2022-08-27T09:11:51.611Z,26.60
2022-08-27T09:16:56.588Z,30.27
2022-08-27T09:22:11.069Z,27.02
2022-08-27T09:27:14.982Z,26.52
2022-08-27T09:32:16.919Z,23.27
2022-08-27T09:37:34.039Z,30.92
2022-08-27T09:42:43.246Z,23.27
2022-08-27T09:48:12.908Z,23.40
2022-08-27T09:53:36.000Z,23.38
2022-08-27T09:58:43.843Z,34.00
2022-08-27T10:03:45.818Z,35.65
2022-08-27T10:08:50.610Z,28.13
2022-08-27T10:14:02.313Z,31.77
2022-08-27T10:19:33.164Z,28.73
2022-08-27T10:24:51.995Z,36.00
2022-08-27T10:30:20.558Z,30.92
2022-08-27T10:35:48.069Z,30.73
2022-08-27T10:41:07.521Z,26.48
2022-08-27T10:46:28.393Z,29.35
2022-08-27T10:51:59.634Z,34.30
2022-08-27T10:57:31.423Z,24.75
2022-08-27T11:02:40.195Z,28.50
2022-08-27T11:07:47.787Z,29.60
2022-08-27T11:12:54.199Z,23.10
2022-08-27T11:18:08.281Z,25.70
2022-08-27T11:23:19.454Z,24.38
2022-08-27T11:28:29.986Z,23.88
2022-08-27T11:34:10.340Z,32.92
2022-08-27T11:39:32.706Z,27.08
2022-08-27T11:44:40.983Z,34.90
2022-08-27T11:49:54.540Z,28.42
2022-08-27T11:55:25.177Z,25.88
2022-08-27T12:00:26.970Z,29.75
2022-08-27T12:05:45.109Z,31.42
2022-08-27T12:11:24.465Z,27.73
2022-08-27T12:16:42.034Z,21.40
2022-08-27T12:21:50.056Z,17.02
2022-08-27T12:27:01.688Z,6.43
2022-08-27T12:32:25.319Z,6.10
2022-08-27T12:37:31.510Z,7.18
2022-08-27T12:42:33.623Z,9.43
2022-08-27T12:47:42.669Z,9.25
2022-08-27T12:53:16.542Z,14.68
2022-08-27T12:58:32.610Z,16.67
2022-08-27T13:03:38.537Z,16.90
2022-08-27T13:08:40.391Z,24.63
2022-08-27T13:13:42.274Z,23.52
2022-08-27T13:18:48.656Z,24.27
2022-08-27T13:24:00.677Z,24.63
2022-08-27T13:29:03.992Z,25.15
2022-08-27T13:34:07.176Z,25.02
2022-08-27T13:39:09.250Z,27.20
2022-08-27T13:44:20.484Z,35.42
2022-08-27T13:49:25.690Z,34.03
2022-08-27T13:54:27.946Z,32.55
2022-08-27T13:59:31.126Z,28.30
2022-08-27T14:04:37.905Z,31.65
2022-08-27T14:09:55.138Z,24.63
2022-08-27T14:14:57.963Z,25.83
2022-08-27T14:20:01.791Z,26.60
2022-08-27T14:25:04.339Z,20.65
2022-08-27T14:30:09.312Z,21.90
2022-08-27T14:35:12.116Z,16.75
2022-08-27T14:40:14.854Z,17.50
2022-08-27T14:45:16.852Z,19.38
2022-08-27T14:50:18.803Z,26.45
2022-08-27T14:55:20.795Z,27.83
2022-08-27T15:00:22.682Z,34.92
2022-08-27T15:05:26.376Z,17.98
2022-08-27T15:10:28.353Z,12.23
2022-08-27T15:15:30.269Z,10.75
2022-08-27T15:20:32.605Z,14.55
2022-08-27T15:25:35.187Z,22.55
2022-08-27T15:30:38.035Z,28.38
2022-08-27T15:35:40.007Z,26.58
2022-08-27T15:40:42.022Z,26.65
2022-08-27T15:45:44.476Z,22.23
2022-08-27T15:50:46.472Z,25.35
2022-08-27T15:55:48.672Z,23.33
2022-08-27T16:00:54.621Z,21.08
2022-08-27T16:06:05.312Z,27.13
2022-08-27T16:11:07.191Z,23.65
2022-08-27T16:16:09.229Z,22.73
2022-08-27T16:21:11.151Z,20.40
2022-08-27T16:26:14.100Z,20.85
2022-08-27T16:31:16.032Z,23.15
2022-08-27T16:36:19.774Z,35.80
2022-08-27T16:41:23.092Z,34.15
2022-08-27T16:46:25.467Z,32.90
2022-08-27T16:51:34.953Z,36.80
2022-08-27T16:56:37.914Z,37.60
2022-08-27T17:01:42.009Z,53.03
2022-08-27T17:06:47.818Z,48.50
2022-08-27T17:11:54.952Z,44.75
2022-08-27T17:16:56.813Z,48.97
2022-08-27T17:21:59.912Z,44.00
2022-08-27T17:27:01.917Z,14.38
2022-08-27T17:32:07.098Z,10.80
2022-08-27T17:37:08.982Z,12.65
2022-08-27T17:42:10.819Z,11.63
2022-08-27T17:47:12.752Z,10.73
2022-08-27T17:52:15.492Z,15.18
2022-08-27T17:57:25.692Z,15.07
2022-08-27T18:02:37.272Z,15.10
2022-08-27T18:07:40.660Z,18.00
2022-08-27T18:12:44.101Z,19.40
2022-08-27T18:17:46.034Z,17.83
2022-08-27T18:22:50.028Z,17.75
2022-08-27T18:27:54.656Z,14.55
2022-08-27T18:32:56.537Z,19.15
2022-08-27T18:37:59.001Z,15.80
2022-08-27T18:43:00.855Z,16.85
2022-08-27T18:48:05.794Z,13.00
2022-08-27T18:53:07.716Z,11.35
2022-08-27T18:58:10.420Z,12.02
2022-08-27T19:03:17.862Z,14.45
2022-08-27T19:08:21.943Z,16.75
2022-08-27T19:13:24.051Z,19.13
2022-08-27T19:18:29.012Z,31.33
2022-08-27T19:23:31.312Z,31.67
2022-08-27T19:28:40.252Z,25.80
2022-08-27T19:33:43.202Z,30.23
2022-08-27T19:38:46.002Z,42.25
2022-08-27T19:43:47.883Z,36.00
2022-08-27T19:48:49.769Z,35.05
2022-08-27T19:53:51.636Z,39.85
2022-08-27T19:58:57.619Z,35.35
2022-08-27T20:04:02.001Z,34.00
2022-08-27T20:09:08.476Z,36.78
2022-08-27T20:14:10.436Z,37.97
2022-08-27T20:19:15.654Z,38.78
2022-08-27T20:24:17.733Z,32.47
2022-08-27T20:29:32.301Z,37.28
2022-08-27T20:34:35.044Z,34.08
2022-08-27T20:39:36.998Z,37.42
2022-08-27T20:44:39.030Z,42.45
2022-08-27T20:49:41.671Z,45.00
2022-08-27T20:54:43.584Z,43.75
2022-08-27T21:00:04.003Z,39.28
2022-08-27T21:05:10.748Z,44.63
2022-08-27T21:10:12.630Z,51.08
2022-08-27T21:15:14.612Z,50.15
2022-08-27T21:20:16.572Z,45.72
2022-08-27T21:25:18.584Z,40.35
2022-08-27T21:30:21.563Z,35.35
2022-08-27T21:35:27.827Z,42.35
2022-08-27T21:40:30.321Z,34.60
2022-08-27T21:45:32.195Z,31.50
2022-08-27T21:50:34.096Z,32.83
2022-08-27T21:55:35.961Z,33.53
2022-08-27T22:00:43.123Z,38.03
2022-08-27T22:05:47.265Z,29.60
2022-08-27T22:10:52.907Z,30.25
2022-08-27T22:15:54.816Z,34.67
2022-08-27T22:20:58.868Z,41.03
2022-08-27T22:26:00.744Z,44.75
2022-08-27T22:31:03.297Z,55.60
2022-08-27T22:36:05.468Z,59.60
2022-08-27T22:41:07.372Z,61.03
2022-08-27T22:46:09.660Z,61.10
2022-08-27T22:51:12.135Z,58.90
2022-08-27T22:56:14.125Z,70.60
2022-08-27T23:01:21.382Z,67.57
2022-08-27T23:06:23.261Z,73.72
2022-08-27T23:11:25.150Z,68.05
2022-08-27T23:16:28.222Z,65.63
2022-08-27T23:21:30.252Z,50.70
2022-08-27T23:26:50.631Z,52.40
2022-08-27T23:31:52.937Z,55.00
2022-08-27T23:36:56.247Z,49.03
2022-08-27T23:41:58.190Z,44.58
2022-08-27T23:47:01.183Z,51.38
2022-08-27T23:52:04.167Z,47.08
2022-08-27T23:57:06.041Z,53.90
